sensor_id;sensor_type;location;lat;lon;timestamp;temperature;humidity
68924;DHT22;55961;52.156;20.942;2023-07-02T00:01:49;19.90;75.20
68924;DHT22;55961;52.156;20.942;2023-07-02T00:04:16;19.90;75.50
68924;DHT22;55961;52.156;20.942;2023-07-02T00:06:43;19.80;75.60
68924;DHT22;55961;52.156;20.942;2023-07-02T00:09:12;19.80;75.80
68924;DHT22;55961;52.156;20.942;2023-07-02T00:11:39;19.70;75.90
68924;DHT22;55961;52.156;20.942;2023-07-02T00:14:07;19.70;75.90
68924;DHT22;55961;52.156;20.942;2023-07-02T00:16:33;19.70;75.90
68924;DHT22;55961;52.156;20.942;2023-07-02T00:18:59;19.70;76.00
68924;DHT22;55961;52.156;20.942;2023-07-02T00:21:26;19.60;76.00
68924;DHT22;55961;52.156;20.942;2023-07-02T00:23:57;19.60;76.20
68924;DHT22;55961;52.156;20.942;2023-07-02T00:26:24;19.60;76.30
68924;DHT22;55961;52.156;20.942;2023-07-02T00:28:51;19.50;76.50
68924;DHT22;55961;52.156;20.942;2023-07-02T00:31:17;19.50;76.50
68924;DHT22;55961;52.156;20.942;2023-07-02T00:33:43;19.50;76.70
68924;DHT22;55961;52.156;20.942;2023-07-02T00:36:09;19.40;76.70
68924;DHT22;55961;52.156;20.942;2023-07-02T00:38:41;19.40;76.80
68924;DHT22;55961;52.156;20.942;2023-07-02T00:41:09;19.40;76.80
68924;DHT22;55961;52.156;20.942;2023-07-02T00:43:35;19.30;77.00
68924;DHT22;55961;52.156;20.942;2023-07-02T00:46:01;19.30;76.90
68924;DHT22;55961;52.156;20.942;2023-07-02T00:48:29;19.20;77.10
68924;DHT22;55961;52.156;20.942;2023-07-02T00:50:55;19.20;77.20
68924;DHT22;55961;52.156;20.942;2023-07-02T00:53:21;19.20;77.20
68924;DHT22;55961;52.156;20.942;2023-07-02T00:55:47;19.10;77.30
68924;DHT22;55961;52.156;20.942;2023-07-02T00:58:13;19.10;77.30
68924;DHT22;55961;52.156;20.942;2023-07-02T01:00:42;19.10;77.30
68924;DHT22;55961;52.156;20.942;2023-07-02T01:03:09;19.10;77.30
68924;DHT22;55961;52.156;20.942;2023-07-02T01:05:37;19.00;77.50
68924;DHT22;55961;52.156;20.942;2023-07-02T01:08:04;19.00;77.40
68924;DHT22;55961;52.156;20.942;2023-07-02T01:10:30;18.90;77.50
68924;DHT22;55961;52.156;20.942;2023-07-02T01:13:00;18.90;77.50
68924;DHT22;55961;52.156;20.942;2023-07-02T01:15:27;18.80;77.50
68924;DHT22;55961;52.156;20.942;2023-07-02T01:17:54;18.80;77.60
68924;DHT22;55961;52.156;20.942;2023-07-02T01:20:20;18.80;77.70
68924;DHT22;55961;52.156;20.942;2023-07-02T01:22:48;18.80;77.70
68924;DHT22;55961;52.156;20.942;2023-07-02T01:25:17;18.80;77.60
68924;DHT22;55961;52.156;20.942;2023-07-02T01:27:44;18.70;77.70
68924;DHT22;55961;52.156;20.942;2023-07-02T01:30:10;18.70;77.80
68924;DHT22;55961;52.156;20.942;2023-07-02T01:32:37;18.70;77.90
68924;DHT22;55961;52.156;20.942;2023-07-02T01:35:04;18.70;78.00
68924;DHT22;55961;52.156;20.942;2023-07-02T01:37:30;18.70;78.30
68924;DHT22;55961;52.156;20.942;2023-07-02T01:40:06;18.70;78.50
68924;DHT22;55961;52.156;20.942;2023-07-02T01:42:32;18.70;78.50
68924;DHT22;55961;52.156;20.942;2023-07-02T01:44:58;18.70;78.70
68924;DHT22;55961;52.156;20.942;2023-07-02T01:47:24;18.70;78.70
68924;DHT22;55961;52.156;20.942;2023-07-02T01:49:51;18.70;78.50
68924;DHT22;55961;52.156;20.942;2023-07-02T01:52:17;18.70;78.30
68924;DHT22;55961;52.156;20.942;2023-07-02T01:54:43;18.70;78.30
68924;DHT22;55961;52.156;20.942;2023-07-02T01:57:09;18.70;77.90
68924;DHT22;55961;52.156;20.942;2023-07-02T01:59:36;18.70;77.50
68924;DHT22;55961;52.156;20.942;2023-07-02T02:02:01;18.70;77.60
68924;DHT22;55961;52.156;20.942;2023-07-02T02:04:28;18.70;77.50
68924;DHT22;55961;52.156;20.942;2023-07-02T02:06:54;18.70;77.40
68924;DHT22;55961;52.156;20.942;2023-07-02T02:09:20;18.70;77.60
68924;DHT22;55961;52.156;20.942;2023-07-02T02:11:48;18.60;77.60
68924;DHT22;55961;52.156;20.942;2023-07-02T02:14:15;18.60;77.70
68924;DHT22;55961;52.156;20.942;2023-07-02T02:16:43;18.60;77.60
68924;DHT22;55961;52.156;20.942;2023-07-02T02:19:11;18.60;77.80
68924;DHT22;55961;52.156;20.942;2023-07-02T02:21:38;18.60;77.90
68924;DHT22;55961;52.156;20.942;2023-07-02T02:24:05;18.60;78.00
68924;DHT22;55961;52.156;20.942;2023-07-02T02:26:33;18.60;78.20
68924;DHT22;55961;52.156;20.942;2023-07-02T02:28:59;18.60;78.30
68924;DHT22;55961;52.156;20.942;2023-07-02T02:31:24;18.60;78.30
68924;DHT22;55961;52.156;20.942;2023-07-02T02:33:51;18.50;78.60
68924;DHT22;55961;52.156;20.942;2023-07-02T02:36:16;18.50;78.50
68924;DHT22;55961;52.156;20.942;2023-07-02T02:38:43;18.50;78.60
68924;DHT22;55961;52.156;20.942;2023-07-02T02:41:09;18.50;78.60
68924;DHT22;55961;52.156;20.942;2023-07-02T02:43:35;18.50;78.80
68924;DHT22;55961;52.156;20.942;2023-07-02T02:46:01;18.50;78.80
68924;DHT22;55961;52.156;20.942;2023-07-02T02:48:27;18.50;78.90
68924;DHT22;55961;52.156;20.942;2023-07-02T02:50:52;18.50;78.90
68924;DHT22;55961;52.156;20.942;2023-07-02T02:53:19;18.50;79.00
68924;DHT22;55961;52.156;20.942;2023-07-02T02:55:44;18.50;79.00
68924;DHT22;55961;52.156;20.942;2023-07-02T02:58:11;18.50;79.10
68924;DHT22;55961;52.156;20.942;2023-07-02T03:00:36;18.50;79.30
68924;DHT22;55961;52.156;20.942;2023-07-02T03:03:04;18.60;79.10
68924;DHT22;55961;52.156;20.942;2023-07-02T03:05:30;18.60;79.00
68924;DHT22;55961;52.156;20.942;2023-07-02T03:07:57;18.60;78.80
68924;DHT22;55961;52.156;20.942;2023-07-02T03:10:23;18.60;78.80
68924;DHT22;55961;52.156;20.942;2023-07-02T03:12:49;18.70;78.90
68924;DHT22;55961;52.156;20.942;2023-07-02T03:15:15;18.70;78.80
68924;DHT22;55961;52.156;20.942;2023-07-02T03:17:43;18.70;78.60
68924;DHT22;55961;52.156;20.942;2023-07-02T03:20:09;18.80;78.50
68924;DHT22;55961;52.156;20.942;2023-07-02T03:22:35;18.80;78.50
68924;DHT22;55961;52.156;20.942;2023-07-02T03:25:01;18.80;78.40
68924;DHT22;55961;52.156;20.942;2023-07-02T03:27:27;18.90;78.20
68924;DHT22;55961;52.156;20.942;2023-07-02T03:29:53;18.90;78.40
68924;DHT22;55961;52.156;20.942;2023-07-02T03:32:19;19.00;78.80
68924;DHT22;55961;52.156;20.942;2023-07-02T03:34:45;19.00;78.50
68924;DHT22;55961;52.156;20.942;2023-07-02T03:37:11;19.10;78.10
68924;DHT22;55961;52.156;20.942;2023-07-02T03:39:36;19.10;77.90
68924;DHT22;55961;52.156;20.942;2023-07-02T03:42:04;19.10;77.70
68924;DHT22;55961;52.156;20.942;2023-07-02T03:44:30;19.10;77.40
68924;DHT22;55961;52.156;20.942;2023-07-02T03:46:56;19.10;77.40
68924;DHT22;55961;52.156;20.942;2023-07-02T03:49:22;19.20;77.40
68924;DHT22;55961;52.156;20.942;2023-07-02T03:51:48;19.20;77.00
68924;DHT22;55961;52.156;20.942;2023-07-02T03:54:14;19.20;77.00
68924;DHT22;55961;52.156;20.942;2023-07-02T03:56:40;19.20;76.90
68924;DHT22;55961;52.156;20.942;2023-07-02T03:59:06;19.30;76.50
68924;DHT22;55961;52.156;20.942;2023-07-02T04:01:32;19.30;76.40
68924;DHT22;55961;52.156;20.942;2023-07-02T04:03:57;19.30;76.30
68924;DHT22;55961;52.156;20.942;2023-07-02T04:06:24;19.40;76.20
68924;DHT22;55961;52.156;20.942;2023-07-02T04:08:50;19.40;76.20
68924;DHT22;55961;52.156;20.942;2023-07-02T04:11:16;19.40;76.30
68924;DHT22;55961;52.156;20.942;2023-07-02T04:13:41;19.50;76.20
68924;DHT22;55961;52.156;20.942;2023-07-02T04:16:08;19.50;75.60
68924;DHT22;55961;52.156;20.942;2023-07-02T04:18:34;19.50;75.20
68924;DHT22;55961;52.156;20.942;2023-07-02T04:21:01;19.50;74.80
68924;DHT22;55961;52.156;20.942;2023-07-02T04:23:27;19.60;74.50
68924;DHT22;55961;52.156;20.942;2023-07-02T04:25:53;19.60;74.40
68924;DHT22;55961;52.156;20.942;2023-07-02T04:28:19;19.60;74.30
68924;DHT22;55961;52.156;20.942;2023-07-02T04:30:45;19.60;74.10
68924;DHT22;55961;52.156;20.942;2023-07-02T04:33:15;19.60;73.60
68924;DHT22;55961;52.156;20.942;2023-07-02T04:35:41;19.60;73.60
68924;DHT22;55961;52.156;20.942;2023-07-02T04:38:07;19.70;73.40
68924;DHT22;55961;52.156;20.942;2023-07-02T04:40:34;19.70;73.10
68924;DHT22;55961;52.156;20.942;2023-07-02T04:43:00;19.70;73.00
68924;DHT22;55961;52.156;20.942;2023-07-02T04:45:26;19.70;72.90
68924;DHT22;55961;52.156;20.942;2023-07-02T04:47:57;19.70;72.70
68924;DHT22;55961;52.156;20.942;2023-07-02T04:50:23;19.80;72.40
68924;DHT22;55961;52.156;20.942;2023-07-02T04:52:49;19.80;72.50
68924;DHT22;55961;52.156;20.942;2023-07-02T04:55:15;19.80;72.10
68924;DHT22;55961;52.156;20.942;2023-07-02T04:57:41;19.80;70.80
68924;DHT22;55961;52.156;20.942;2023-07-02T05:00:08;19.90;70.50
68924;DHT22;55961;52.156;20.942;2023-07-02T05:02:34;19.90;69.90
68924;DHT22;55961;52.156;20.942;2023-07-02T05:05:00;20.00;69.40
68924;DHT22;55961;52.156;20.942;2023-07-02T05:07:26;20.00;68.80
68924;DHT22;55961;52.156;20.942;2023-07-02T05:09:52;20.10;67.60
68924;DHT22;55961;52.156;20.942;2023-07-02T05:12:19;20.10;67.40
68924;DHT22;55961;52.156;20.942;2023-07-02T05:14:45;20.10;67.00
68924;DHT22;55961;52.156;20.942;2023-07-02T05:17:11;20.20;66.20
68924;DHT22;55961;52.156;20.942;2023-07-02T05:19:40;20.20;65.90
68924;DHT22;55961;52.156;20.942;2023-07-02T05:22:07;20.30;65.80
68924;DHT22;55961;52.156;20.942;2023-07-02T05:24:33;20.30;65.60
68924;DHT22;55961;52.156;20.942;2023-07-02T05:26:59;20.30;65.00
68924;DHT22;55961;52.156;20.942;2023-07-02T05:29:25;20.40;64.80
68924;DHT22;55961;52.156;20.942;2023-07-02T05:31:51;20.40;64.50
68924;DHT22;55961;52.156;20.942;2023-07-02T05:34:17;20.40;64.60
68924;DHT22;55961;52.156;20.942;2023-07-02T05:36:43;20.50;64.60
68924;DHT22;55961;52.156;20.942;2023-07-02T05:39:10;20.50;64.20
68924;DHT22;55961;52.156;20.942;2023-07-02T05:41:35;20.50;63.90
68924;DHT22;55961;52.156;20.942;2023-07-02T05:44:02;20.50;64.00
68924;DHT22;55961;52.156;20.942;2023-07-02T05:46:27;20.60;63.50
68924;DHT22;55961;52.156;20.942;2023-07-02T05:48:53;20.60;63.80
68924;DHT22;55961;52.156;20.942;2023-07-02T05:51:23;20.60;63.50
68924;DHT22;55961;52.156;20.942;2023-07-02T05:53:50;20.70;63.50
68924;DHT22;55961;52.156;20.942;2023-07-02T05:56:17;20.70;63.40
68924;DHT22;55961;52.156;20.942;2023-07-02T05:58:44;20.70;63.30
68924;DHT22;55961;52.156;20.942;2023-07-02T06:01:10;20.70;63.20
68924;DHT22;55961;52.156;20.942;2023-07-02T06:03:36;20.80;63.60
68924;DHT22;55961;52.156;20.942;2023-07-02T06:06:03;20.80;63.40
68924;DHT22;55961;52.156;20.942;2023-07-02T06:08:29;20.80;63.40
68924;DHT22;55961;52.156;20.942;2023-07-02T06:10:55;20.80;63.40
68924;DHT22;55961;52.156;20.942;2023-07-02T06:13:21;20.90;63.40
68924;DHT22;55961;52.156;20.942;2023-07-02T06:15:47;20.90;63.40
68924;DHT22;55961;52.156;20.942;2023-07-02T06:18:13;20.90;63.50
68924;DHT22;55961;52.156;20.942;2023-07-02T06:20:39;21.00;63.90
68924;DHT22;55961;52.156;20.942;2023-07-02T06:23:05;21.00;62.70
68924;DHT22;55961;52.156;20.942;2023-07-02T06:25:31;21.10;62.80
68924;DHT22;55961;52.156;20.942;2023-07-02T06:27:57;21.10;62.50
68924;DHT22;55961;52.156;20.942;2023-07-02T06:30:24;21.10;62.40
68924;DHT22;55961;52.156;20.942;2023-07-02T06:32:51;21.10;62.50
68924;DHT22;55961;52.156;20.942;2023-07-02T06:35:17;21.20;62.50
68924;DHT22;55961;52.156;20.942;2023-07-02T06:37:43;21.20;62.60
68924;DHT22;55961;52.156;20.942;2023-07-02T06:40:10;21.20;63.10
68924;DHT22;55961;52.156;20.942;2023-07-02T06:42:36;21.30;63.20
68924;DHT22;55961;52.156;20.942;2023-07-02T06:45:03;21.30;62.30
68924;DHT22;55961;52.156;20.942;2023-07-02T06:47:29;21.30;62.70
68924;DHT22;55961;52.156;20.942;2023-07-02T06:49:55;21.40;62.50
68924;DHT22;55961;52.156;20.942;2023-07-02T06:52:21;21.40;62.30
68924;DHT22;55961;52.156;20.942;2023-07-02T06:54:47;21.40;62.70
68924;DHT22;55961;52.156;20.942;2023-07-02T06:57:13;21.40;62.70
68924;DHT22;55961;52.156;20.942;2023-07-02T06:59:39;21.50;62.60
68924;DHT22;55961;52.156;20.942;2023-07-02T07:02:06;21.50;62.00
68924;DHT22;55961;52.156;20.942;2023-07-02T07:04:32;21.60;62.30
68924;DHT22;55961;52.156;20.942;2023-07-02T07:06:59;21.60;62.50
68924;DHT22;55961;52.156;20.942;2023-07-02T07:09:25;21.70;62.70
68924;DHT22;55961;52.156;20.942;2023-07-02T07:11:51;21.70;62.10
68924;DHT22;55961;52.156;20.942;2023-07-02T07:14:17;21.70;61.90
68924;DHT22;55961;52.156;20.942;2023-07-02T07:16:43;21.70;61.80
68924;DHT22;55961;52.156;20.942;2023-07-02T07:19:09;21.70;62.40
68924;DHT22;55961;52.156;20.942;2023-07-02T07:21:35;21.70;62.60
68924;DHT22;55961;52.156;20.942;2023-07-02T07:24:01;21.70;62.90
68924;DHT22;55961;52.156;20.942;2023-07-02T07:26:27;21.70;62.50
68924;DHT22;55961;52.156;20.942;2023-07-02T07:28:53;21.70;62.60
68924;DHT22;55961;52.156;20.942;2023-07-02T07:31:21;21.70;62.70
68924;DHT22;55961;52.156;20.942;2023-07-02T07:33:47;21.70;63.60
68924;DHT22;55961;52.156;20.942;2023-07-02T07:36:13;21.70;63.70
68924;DHT22;55961;52.156;20.942;2023-07-02T07:38:39;21.60;64.40
68924;DHT22;55961;52.156;20.942;2023-07-02T07:41:05;21.70;64.70
68924;DHT22;55961;52.156;20.942;2023-07-02T07:43:31;21.70;64.70
68924;DHT22;55961;52.156;20.942;2023-07-02T07:45:57;21.60;64.60
68924;DHT22;55961;52.156;20.942;2023-07-02T07:48:24;21.60;65.00
68924;DHT22;55961;52.156;20.942;2023-07-02T07:50:51;21.60;65.40
68924;DHT22;55961;52.156;20.942;2023-07-02T07:53:16;21.60;65.90
68924;DHT22;55961;52.156;20.942;2023-07-02T07:55:42;21.60;65.60
68924;DHT22;55961;52.156;20.942;2023-07-02T07:58:11;21.60;65.90
68924;DHT22;55961;52.156;20.942;2023-07-02T08:00:37;21.60;66.30
68924;DHT22;55961;52.156;20.942;2023-07-02T08:03:03;21.50;65.90
68924;DHT22;55961;52.156;20.942;2023-07-02T08:05:32;21.50;66.10
68924;DHT22;55961;52.156;20.942;2023-07-02T08:07:58;21.50;66.50
68924;DHT22;55961;52.156;20.942;2023-07-02T08:10:24;21.50;66.70
68924;DHT22;55961;52.156;20.942;2023-07-02T08:12:51;21.50;66.10
68924;DHT22;55961;52.156;20.942;2023-07-02T08:15:21;21.50;66.10
68924;DHT22;55961;52.156;20.942;2023-07-02T08:17:47;21.40;66.30
68924;DHT22;55961;52.156;20.942;2023-07-02T08:20:13;21.50;66.70
68924;DHT22;55961;52.156;20.942;2023-07-02T08:22:41;21.50;66.80
68924;DHT22;55961;52.156;20.942;2023-07-02T08:25:08;21.60;66.40
68924;DHT22;55961;52.156;20.942;2023-07-02T08:27:34;21.60;66.50
68924;DHT22;55961;52.156;20.942;2023-07-02T08:30:01;21.70;66.10
68924;DHT22;55961;52.156;20.942;2023-07-02T08:32:27;21.80;65.40
68924;DHT22;55961;52.156;20.942;2023-07-02T08:34:53;21.80;65.70
68924;DHT22;55961;52.156;20.942;2023-07-02T08:37:20;21.90;65.70
68924;DHT22;55961;52.156;20.942;2023-07-02T08:39:48;21.90;65.30
68924;DHT22;55961;52.156;20.942;2023-07-02T08:42:14;21.90;65.50
68924;DHT22;55961;52.156;20.942;2023-07-02T08:44:41;21.90;65.90
68924;DHT22;55961;52.156;20.942;2023-07-02T08:47:08;21.90;65.80
68924;DHT22;55961;52.156;20.942;2023-07-02T08:49:34;21.90;65.80
68924;DHT22;55961;52.156;20.942;2023-07-02T08:52:00;21.90;65.80
68924;DHT22;55961;52.156;20.942;2023-07-02T08:54:26;21.80;66.20
68924;DHT22;55961;52.156;20.942;2023-07-02T08:56:52;21.80;66.30
68924;DHT22;55961;52.156;20.942;2023-07-02T08:59:18;21.80;66.20
68924;DHT22;55961;52.156;20.942;2023-07-02T09:01:48;21.80;66.80
68924;DHT22;55961;52.156;20.942;2023-07-02T09:04:22;21.90;66.50
68924;DHT22;55961;52.156;20.942;2023-07-02T09:07:11;21.90;66.20
68924;DHT22;55961;52.156;20.942;2023-07-02T09:09:47;22.00;66.00
68924;DHT22;55961;52.156;20.942;2023-07-02T09:12:30;22.00;65.80
68924;DHT22;55961;52.156;20.942;2023-07-02T09:15:02;22.00;65.80
68924;DHT22;55961;52.156;20.942;2023-07-02T09:17:33;21.90;66.30
68924;DHT22;55961;52.156;20.942;2023-07-02T09:20:02;21.80;66.80
68924;DHT22;55961;52.156;20.942;2023-07-02T09:22:30;21.80;66.90
68924;DHT22;55961;52.156;20.942;2023-07-02T09:24:58;21.80;67.20
68924;DHT22;55961;52.156;20.942;2023-07-02T09:27:40;21.80;67.60
68924;DHT22;55961;52.156;20.942;2023-07-02T09:30:14;21.80;67.10
68924;DHT22;55961;52.156;20.942;2023-07-02T09:32:45;21.80;66.80
68924;DHT22;55961;52.156;20.942;2023-07-02T09:35:11;21.80;66.40
68924;DHT22;55961;52.156;20.942;2023-07-02T09:37:39;21.80;66.10
68924;DHT22;55961;52.156;20.942;2023-07-02T09:40:07;21.80;65.60
68924;DHT22;55961;52.156;20.942;2023-07-02T09:42:35;21.80;65.70
68924;DHT22;55961;52.156;20.942;2023-07-02T09:45:02;21.70;65.90
68924;DHT22;55961;52.156;20.942;2023-07-02T09:47:29;21.70;66.10
68924;DHT22;55961;52.156;20.942;2023-07-02T09:50:03;21.70;66.40
68924;DHT22;55961;52.156;20.942;2023-07-02T09:52:31;21.70;66.80
68924;DHT22;55961;52.156;20.942;2023-07-02T09:54:59;21.80;66.70
68924;DHT22;55961;52.156;20.942;2023-07-02T09:57:25;21.90;66.50
68924;DHT22;55961;52.156;20.942;2023-07-02T09:59:52;22.00;65.70
68924;DHT22;55961;52.156;20.942;2023-07-02T10:02:18;22.10;65.30
68924;DHT22;55961;52.156;20.942;2023-07-02T10:04:46;22.20;65.00
68924;DHT22;55961;52.156;20.942;2023-07-02T10:07:13;22.30;64.60
68924;DHT22;55961;52.156;20.942;2023-07-02T10:09:51;22.50;64.70
68924;DHT22;55961;52.156;20.942;2023-07-02T10:12:26;22.60;64.20
68924;DHT22;55961;52.156;20.942;2023-07-02T10:14:54;22.70;63.80
68924;DHT22;55961;52.156;20.942;2023-07-02T10:17:31;22.80;62.90
68924;DHT22;55961;52.156;20.942;2023-07-02T10:20:03;22.90;62.50
68924;DHT22;55961;52.156;20.942;2023-07-02T10:22:43;23.00;62.30
68924;DHT22;55961;52.156;20.942;2023-07-02T10:25:09;23.00;62.50
68924;DHT22;55961;52.156;20.942;2023-07-02T10:27:40;23.00;62.00
68924;DHT22;55961;52.156;20.942;2023-07-02T10:30:08;23.10;61.20
68924;DHT22;55961;52.156;20.942;2023-07-02T10:32:36;23.20;61.20
68924;DHT22;55961;52.156;20.942;2023-07-02T10:35:16;23.40;61.70
68924;DHT22;55961;52.156;20.942;2023-07-02T10:37:43;23.60;60.80
68924;DHT22;55961;52.156;20.942;2023-07-02T10:40:09;23.80;59.90
68924;DHT22;55961;52.156;20.942;2023-07-02T10:43:05;23.90;59.00
68924;DHT22;55961;52.156;20.942;2023-07-02T10:45:34;24.20;59.20
68924;DHT22;55961;52.156;20.942;2023-07-02T10:48:04;24.40;58.10
68924;DHT22;55961;52.156;20.942;2023-07-02T10:50:31;24.50;57.00
68924;DHT22;55961;52.156;20.942;2023-07-02T10:52:57;24.60;56.90
68924;DHT22;55961;52.156;20.942;2023-07-02T10:55:24;24.60;56.40
68924;DHT22;55961;52.156;20.942;2023-07-02T10:58:03;24.60;56.30
68924;DHT22;55961;52.156;20.942;2023-07-02T11:00:29;24.70;56.50
68924;DHT22;55961;52.156;20.942;2023-07-02T11:02:55;24.80;56.10
68924;DHT22;55961;52.156;20.942;2023-07-02T11:05:21;24.90;55.50
68924;DHT22;55961;52.156;20.942;2023-07-02T11:07:47;24.90;54.40
68924;DHT22;55961;52.156;20.942;2023-07-02T11:10:20;24.90;54.60
68924;DHT22;55961;52.156;20.942;2023-07-02T11:12:45;24.90;54.30
68924;DHT22;55961;52.156;20.942;2023-07-02T11:15:16;24.90;53.90
68924;DHT22;55961;52.156;20.942;2023-07-02T11:17:43;24.80;54.40
68924;DHT22;55961;52.156;20.942;2023-07-02T11:20:10;24.70;54.80
68924;DHT22;55961;52.156;20.942;2023-07-02T11:22:37;24.70;55.20
68924;DHT22;55961;52.156;20.942;2023-07-02T11:25:13;24.70;57.40
68924;DHT22;55961;52.156;20.942;2023-07-02T11:27:39;24.60;58.20
68924;DHT22;55961;52.156;20.942;2023-07-02T11:30:06;24.60;58.20
68924;DHT22;55961;52.156;20.942;2023-07-02T11:32:48;24.50;57.70
68924;DHT22;55961;52.156;20.942;2023-07-02T11:35:14;24.50;57.90
68924;DHT22;55961;52.156;20.942;2023-07-02T11:37:41;24.50;57.80
68924;DHT22;55961;52.156;20.942;2023-07-02T11:40:08;24.50;57.80
68924;DHT22;55961;52.156;20.942;2023-07-02T11:42:34;24.50;58.40
68924;DHT22;55961;52.156;20.942;2023-07-02T11:45:00;24.50;57.80
68924;DHT22;55961;52.156;20.942;2023-07-02T11:47:26;24.50;58.00
68924;DHT22;55961;52.156;20.942;2023-07-02T11:49:53;24.50;58.60
68924;DHT22;55961;52.156;20.942;2023-07-02T11:52:21;24.60;58.30
68924;DHT22;55961;52.156;20.942;2023-07-02T11:54:47;24.70;58.00
68924;DHT22;55961;52.156;20.942;2023-07-02T11:57:13;24.70;58.10
68924;DHT22;55961;52.156;20.942;2023-07-02T11:59:41;24.80;58.60
68924;DHT22;55961;52.156;20.942;2023-07-02T12:02:06;24.90;58.50
68924;DHT22;55961;52.156;20.942;2023-07-02T12:04:32;25.10;58.40
68924;DHT22;55961;52.156;20.942;2023-07-02T12:06:59;25.30;57.50
68924;DHT22;55961;52.156;20.942;2023-07-02T12:09:27;25.40;57.20
68924;DHT22;55961;52.156;20.942;2023-07-02T12:11:53;25.50;56.80
68924;DHT22;55961;52.156;20.942;2023-07-02T12:14:19;25.60;56.20
68924;DHT22;55961;52.156;20.942;2023-07-02T12:16:45;25.60;55.90
68924;DHT22;55961;52.156;20.942;2023-07-02T12:19:11;25.70;55.40
68924;DHT22;55961;52.156;20.942;2023-07-02T12:21:37;25.80;55.70
68924;DHT22;55961;52.156;20.942;2023-07-02T12:24:03;25.90;55.80
68924;DHT22;55961;52.156;20.942;2023-07-02T12:26:34;26.10;54.70
68924;DHT22;55961;52.156;20.942;2023-07-02T12:29:00;26.10;53.30
68924;DHT22;55961;52.156;20.942;2023-07-02T12:31:26;26.20;51.90
68924;DHT22;55961;52.156;20.942;2023-07-02T12:33:52;26.10;52.60
68924;DHT22;55961;52.156;20.942;2023-07-02T12:36:18;26.10;53.20
68924;DHT22;55961;52.156;20.942;2023-07-02T12:38:44;26.10;54.00
68924;DHT22;55961;52.156;20.942;2023-07-02T12:41:09;26.20;51.10
68924;DHT22;55961;52.156;20.942;2023-07-02T12:43:35;26.20;49.20
68924;DHT22;55961;52.156;20.942;2023-07-02T12:46:01;26.10;47.40
68924;DHT22;55961;52.156;20.942;2023-07-02T12:48:28;26.20;48.30
68924;DHT22;55961;52.156;20.942;2023-07-02T12:50:58;26.10;48.00
68924;DHT22;55961;52.156;20.942;2023-07-02T12:53:25;26.20;45.30
68924;DHT22;55961;52.156;20.942;2023-07-02T12:55:51;26.20;44.60
68924;DHT22;55961;52.156;20.942;2023-07-02T12:58:17;26.10;44.40
68924;DHT22;55961;52.156;20.942;2023-07-02T13:00:43;26.10;43.50
68924;DHT22;55961;52.156;20.942;2023-07-02T13:03:11;26.20;42.00
68924;DHT22;55961;52.156;20.942;2023-07-02T13:05:38;26.30;42.40
68924;DHT22;55961;52.156;20.942;2023-07-02T13:08:04;26.40;42.10
68924;DHT22;55961;52.156;20.942;2023-07-02T13:10:30;26.60;41.60
68924;DHT22;55961;52.156;20.942;2023-07-02T13:12:56;26.70;41.60
68924;DHT22;55961;52.156;20.942;2023-07-02T13:15:22;26.80;41.10
68924;DHT22;55961;52.156;20.942;2023-07-02T13:17:48;26.90;41.60
68924;DHT22;55961;52.156;20.942;2023-07-02T13:20:14;26.90;41.70
68924;DHT22;55961;52.156;20.942;2023-07-02T13:22:40;26.90;41.00
68924;DHT22;55961;52.156;20.942;2023-07-02T13:25:07;26.90;40.30
68924;DHT22;55961;52.156;20.942;2023-07-02T13:27:33;26.80;40.20
68924;DHT22;55961;52.156;20.942;2023-07-02T13:29:59;26.80;40.00
68924;DHT22;55961;52.156;20.942;2023-07-02T13:32:25;26.70;40.40
68924;DHT22;55961;52.156;20.942;2023-07-02T13:34:51;26.60;40.50
68924;DHT22;55961;52.156;20.942;2023-07-02T13:37:17;26.60;40.80
68924;DHT22;55961;52.156;20.942;2023-07-02T13:39:45;26.50;40.70
68924;DHT22;55961;52.156;20.942;2023-07-02T13:42:11;26.40;41.00
68924;DHT22;55961;52.156;20.942;2023-07-02T13:44:37;26.30;41.60
68924;DHT22;55961;52.156;20.942;2023-07-02T13:47:03;26.20;41.80
68924;DHT22;55961;52.156;20.942;2023-07-02T13:49:30;26.10;42.10
68924;DHT22;55961;52.156;20.942;2023-07-02T13:51:56;26.10;42.20
68924;DHT22;55961;52.156;20.942;2023-07-02T13:54:22;26.00;41.40
68924;DHT22;55961;52.156;20.942;2023-07-02T13:56:48;25.90;41.30
68924;DHT22;55961;52.156;20.942;2023-07-02T13:59:15;25.80;41.70
68924;DHT22;55961;52.156;20.942;2023-07-02T14:01:42;25.80;41.90
68924;DHT22;55961;52.156;20.942;2023-07-02T14:04:08;25.80;42.10
68924;DHT22;55961;52.156;20.942;2023-07-02T14:06:34;25.70;41.50
68924;DHT22;55961;52.156;20.942;2023-07-02T14:09:00;25.70;41.70
68924;DHT22;55961;52.156;20.942;2023-07-02T14:11:27;25.70;42.00
68924;DHT22;55961;52.156;20.942;2023-07-02T14:13:54;25.60;42.00
68924;DHT22;55961;52.156;20.942;2023-07-02T14:16:20;25.60;42.20
68924;DHT22;55961;52.156;20.942;2023-07-02T14:18:47;25.60;41.70
68924;DHT22;55961;52.156;20.942;2023-07-02T14:21:13;25.60;42.00
68924;DHT22;55961;52.156;20.942;2023-07-02T14:23:39;25.60;42.50
68924;DHT22;55961;52.156;20.942;2023-07-02T14:26:05;25.60;42.70
68924;DHT22;55961;52.156;20.942;2023-07-02T14:28:31;25.60;41.20
68924;DHT22;55961;52.156;20.942;2023-07-02T14:31:02;25.60;41.60
68924;DHT22;55961;52.156;20.942;2023-07-02T14:33:31;25.60;41.40
68924;DHT22;55961;52.156;20.942;2023-07-02T14:35:59;25.60;41.50
68924;DHT22;55961;52.156;20.942;2023-07-02T14:38:25;25.60;40.60
68924;DHT22;55961;52.156;20.942;2023-07-02T14:40:53;25.60;40.60
68924;DHT22;55961;52.156;20.942;2023-07-02T14:43:21;25.50;41.20
68924;DHT22;55961;52.156;20.942;2023-07-02T14:45:52;25.50;41.30
68924;DHT22;55961;52.156;20.942;2023-07-02T14:48:18;25.50;40.30
68924;DHT22;55961;52.156;20.942;2023-07-02T14:50:49;25.40;40.70
68924;DHT22;55961;52.156;20.942;2023-07-02T14:53:15;25.40;41.10
68924;DHT22;55961;52.156;20.942;2023-07-02T14:55:42;25.40;40.80
68924;DHT22;55961;52.156;20.942;2023-07-02T14:58:08;25.30;41.10
68924;DHT22;55961;52.156;20.942;2023-07-02T15:00:34;25.40;40.90
68924;DHT22;55961;52.156;20.942;2023-07-02T15:03:01;25.30;41.30
68924;DHT22;55961;52.156;20.942;2023-07-02T15:05:27;25.30;41.20
68924;DHT22;55961;52.156;20.942;2023-07-02T15:07:53;25.30;41.80
68924;DHT22;55961;52.156;20.942;2023-07-02T15:10:19;25.30;41.60
68924;DHT22;55961;52.156;20.942;2023-07-02T15:12:44;25.40;42.00
68924;DHT22;55961;52.156;20.942;2023-07-02T15:15:11;25.50;41.50